• Join FlightAware (Why Join?)
  • Login
  • US Flag 
04:22AM EDT


 

Airport Tracker/Info


-or-


 

Live Flight TrackerFlight Track Log ✈ N4137F ✈ 04-May-2013 ✈ KFPR - KCRG

Flight Track Log - Related Links

Times and Time Zones

All times are in EDT time to prevent confusion due to time zone crossing. See the N4137F flight status page for this flight to view local times or setup timezone preferences in your user account.

Time Position Orientation Groundspeed Altitude Reporting Facility
EDT Latitude Longitude Course Direction KTS MPH feet Rate Location/Type
12:00PM 27.4928 -80.4083 344° North 128 147 600  Level Miami Center
12:01PM 27.4756 -80.4289 227° Southwest 97 112 1,000 420 Climbing Miami Center
12:02PM 27.4644 -80.4542 244° Southwest 91 105 1,500 420 Climbing Miami Center
12:03PM 27.6951 -80.4484 344° North  Level FlightAware Approximate
12:03PM 27.4533 -80.4797 244° Southwest 91 105 1,900  Level Miami Center
12:04PM 27.4425 -80.5028 242° Southwest 96 110 2,200 300 Climbing Miami Center
12:05PM 27.4314 -80.5281 244° Southwest 96 110 2,600 300 Climbing Miami Center
12:06PM 27.4581 -80.5478 327° Northwest 82 94 2,800 300 Climbing Miami Center
12:07PM 27.4892 -80.5533 351° North 98 113 3,200 300 Climbing Miami Center
12:08PM 27.5183 -80.5567 354° North 110 127 3,500 240 Climbing Miami Center
12:09PM 27.5458 -80.5458 19° North 110 127 3,700 300 Climbing Miami Center
12:10PM 27.5808 -80.5564 345° North 105 121 4,100 360 Climbing Miami Center
12:11PM 27.6122 -80.5619 351° North 105 121 4,500 300 Climbing Miami Center
12:12PM 27.6433 -80.5678 351° North 105 121 4,800 300 Climbing Miami Center
12:13PM 27.6725 -80.5733 350° North 110 127 5,100 120 Climbing Miami Center
12:14PM 27.7097 -80.5792 352° North 117 135 5,100 -60 Level Miami Center
12:16PM 27.8167 -80.6000 350° North 144 166 5,000 -60 Descending Orlando TRACON
12:17PM 27.8500 -80.6000 360° North 139 160 5,000  Level Orlando TRACON
12:18PM 27.9000 -80.6167 344° North 144 166 5,000  Level Orlando TRACON
12:19PM 27.9333 -80.6167 360° North 145 167 5,000  Level Orlando TRACON
12:20PM 27.9667 -80.6333 336° Northwest 144 166 5,000  Level Orlando TRACON
12:21PM 28.0167 -80.6333 360° North 145 167 5,000  Level Orlando TRACON
12:22PM 28.0500 -80.6500 336° Northwest 145 167 5,000  Level Orlando TRACON
12:23PM 28.1000 -80.6500 360° North 147 169 5,000  Level Orlando TRACON
12:24PM 28.1333 -80.6667 336° Northwest 141 162 5,000  Level Orlando TRACON
12:25PM 28.1833 -80.6667 360° North 149 171 5,000  Level Orlando TRACON
12:26PM 28.2167 -80.6833 336° Northwest 148 170 5,000  Level Orlando TRACON
12:27PM 28.2500 -80.6833 360° North 148 170 5,000  Level Orlando TRACON
12:28PM 28.3000 -80.7000 344° North 149 171 5,000  Level Orlando TRACON
12:29PM 28.3333 -80.7000 360° North 149 171 5,000  Level Orlando TRACON
12:30PM 28.3833 -80.7000 360° North 146 168 5,000  Level Orlando TRACON
12:31PM 28.4167 -80.7167 336° Northwest 144 166 5,000  Level Orlando TRACON
12:32PM 28.4667 -80.7167 360° North 145 167 5,000  Level Orlando TRACON
12:33PM 28.5000 -80.7333 336° Northwest 144 166 5,000  Level Orlando TRACON
12:34PM 28.5333 -80.7333 360° North 144 166 5,000  Level Orlando TRACON
12:35PM 28.5667 -80.7500 336° Northwest 141 162 5,000  Level Orlando TRACON
12:36PM 28.6000 -80.7667 336° Northwest 141 162 5,000  Level Orlando TRACON
12:37PM 28.6333 -80.7833 336° Northwest 140 161 5,000  Level Orlando TRACON
12:38PM 28.6833 -80.8167 330° Northwest 141 162 5,000  Level Orlando TRACON
12:39PM 28.7000 -80.8333 319° Northwest 141 162 5,000  Level Orlando TRACON
12:41PM 28.7708 -80.8842 328° Northwest 141 162 5,000  Level Jacksonville Center
12:42PM 28.8067 -80.9094 328° Northwest 143 165 5,000  Level Jacksonville Center
12:43PM 28.8425 -80.9325 331° Northwest 141 162 5,000 -60 Level Jacksonville Center
12:44PM 28.8761 -80.9531 332° Northwest 145 167 4,900 -300 Descending Jacksonville Center
12:45PM 28.9225 -80.9853 329° Northwest 164 189 4,400 -540 Descending Jacksonville Center
12:46PM 28.9519 -81.0014 334° Northwest 172 198 4,000 -600 Descending Jacksonville Center
12:47PM 29.0006 -81.0314 332° Northwest 168 193 3,300 -600 Descending Jacksonville Center
12:48PM 29.0364 -81.0617 324° Northwest 159 183 2,800 -540 Descending Jacksonville Center
12:49PM 29.0494 -81.1089 288° West 148 170 2,300 -420 Descending Jacksonville Center
12:50PM 29.0458 -81.1517 264° West 138 159 2,000 -120 Descending Jacksonville Center
12:51PM 29.0381 -81.1922 258° West 121 139 2,100 -60 Climbing Jacksonville Center
12:53PM 29.0617 -81.2322 304° West 137 158 1,900 -180 Descending Jacksonville Center
12:54PM 29.0994 -81.2528 335° Northwest 150 173 1,700 -60 Descending Jacksonville Center
12:54PM 29.1117 -81.2314 57° Northeast 138 159 1,800  Climbing Jacksonville Center
12:55PM 29.1300 -81.1881 64° Northeast 131 151 1,700 -240 Descending Jacksonville Center
12:56PM 29.1442 -81.1500 67° East 125 144 1,400 -420 Descending Jacksonville Center
12:57PM 29.1581 -81.1139 66° East 127 146 900 -540 Descending Jacksonville Center